sensor_id;sensor_type;location;lat;lon;timestamp;P1;durP1;ratioP1;P2;durP2;ratioP2
5297;SDS011;14738;42.668;23.250;2023-05-21T00:00:38;15.17;;;13.70;;
5297;SDS011;14738;42.668;23.250;2023-05-21T00:03:04;14.80;;;13.10;;
5297;SDS011;14738;42.668;23.250;2023-05-21T00:05:29;13.87;;;12.50;;
5297;SDS011;14738;42.668;23.250;2023-05-21T00:07:55;14.07;;;11.87;;
5297;SDS011;14738;42.668;23.250;2023-05-21T00:10:20;14.77;;;13.27;;
5297;SDS011;14738;42.668;23.250;2023-05-21T00:12:46;14.37;;;12.87;;
5297;SDS011;14738;42.668;23.250;2023-05-21T00:15:11;14.03;;;12.57;;
5297;SDS011;14738;42.668;23.250;2023-05-21T00:17:37;13.07;;;11.77;;
5297;SDS011;14738;42.668;23.250;2023-05-21T00:20:02;12.23;;;11.00;;
5297;SDS011;14738;42.668;23.250;2023-05-21T00:22:32;13.17;;;11.90;;
5297;SDS011;14738;42.668;23.250;2023-05-21T00:24:58;12.00;;;10.90;;
5297;SDS011;14738;42.668;23.250;2023-05-21T00:27:23;13.30;;;11.10;;
5297;SDS011;14738;42.668;23.250;2023-05-21T00:29:49;13.20;;;11.80;;
5297;SDS011;14738;42.668;23.250;2023-05-21T00:32:14;11.97;;;10.87;;
5297;SDS011;14738;42.668;23.250;2023-05-21T00:34:40;12.77;;;11.57;;
5297;SDS011;14738;42.668;23.250;2023-05-21T00:37:05;13.93;;;12.43;;
5297;SDS011;14738;42.668;23.250;2023-05-21T00:39:30;12.03;;;10.73;;
5297;SDS011;14738;42.668;23.250;2023-05-21T00:41:56;12.13;;;9.80;;
5297;SDS011;14738;42.668;23.250;2023-05-21T00:44:21;11.17;;;10.20;;
5297;SDS011;14738;42.668;23.250;2023-05-21T00:46:48;12.00;;;10.90;;
5297;SDS011;14738;42.668;23.250;2023-05-21T00:49:17;12.60;;;11.30;;
5297;SDS011;14738;42.668;23.250;2023-05-21T00:51:44;12.90;;;11.10;;
5297;SDS011;14738;42.668;23.250;2023-05-21T00:54:09;11.93;;;10.77;;
5297;SDS011;14738;42.668;23.250;2023-05-21T00:56:35;14.17;;;11.00;;
5297;SDS011;14738;42.668;23.250;2023-05-21T00:59:01;11.83;;;10.50;;
5297;SDS011;14738;42.668;23.250;2023-05-21T01:01:29;13.80;;;11.53;;
5297;SDS011;14738;42.668;23.250;2023-05-21T01:03:57;13.27;;;11.60;;
5297;SDS011;14738;42.668;23.250;2023-05-21T01:06:26;14.17;;;12.67;;
5297;SDS011;14738;42.668;23.250;2023-05-21T01:08:52;13.47;;;12.03;;
5297;SDS011;14738;42.668;23.250;2023-05-21T01:11:20;13.83;;;11.90;;
5297;SDS011;14738;42.668;23.250;2023-05-21T01:13:53;12.40;;;11.00;;
5297;SDS011;14738;42.668;23.250;2023-05-21T01:16:19;13.93;;;12.47;;
5297;SDS011;14738;42.668;23.250;2023-05-21T01:18:45;16.53;;;11.77;;
5297;SDS011;14738;42.668;23.250;2023-05-21T01:21:11;12.00;;;10.90;;
5297;SDS011;14738;42.668;23.250;2023-05-21T01:23:41;15.10;;;11.57;;
5297;SDS011;14738;42.668;23.250;2023-05-21T01:26:06;13.47;;;12.17;;
5297;SDS011;14738;42.668;23.250;2023-05-21T01:28:32;12.80;;;11.27;;
5297;SDS011;14738;42.668;23.250;2023-05-21T01:30:59;11.87;;;10.67;;
5297;SDS011;14738;42.668;23.250;2023-05-21T01:33:35;11.80;;;10.60;;
5297;SDS011;14738;42.668;23.250;2023-05-21T01:36:07;11.90;;;10.70;;
5297;SDS011;14738;42.668;23.250;2023-05-21T01:38:48;13.03;;;10.90;;
5297;SDS011;14738;42.668;23.250;2023-05-21T01:41:26;12.10;;;10.90;;
5297;SDS011;14738;42.668;23.250;2023-05-21T01:43:55;12.40;;;10.77;;
5297;SDS011;14738;42.668;23.250;2023-05-21T01:46:23;11.57;;;10.47;;
5297;SDS011;14738;42.668;23.250;2023-05-21T01:48:50;11.13;;;10.23;;
5297;SDS011;14738;42.668;23.250;2023-05-21T01:51:18;10.30;;;9.40;;
5297;SDS011;14738;42.668;23.250;2023-05-21T01:53:43;10.33;;;9.50;;
5297;SDS011;14738;42.668;23.250;2023-05-21T01:56:08;10.57;;;9.57;;
5297;SDS011;14738;42.668;23.250;2023-05-21T01:58:35;14.13;;;11.40;;
5297;SDS011;14738;42.668;23.250;2023-05-21T02:01:01;11.20;;;10.00;;
5297;SDS011;14738;42.668;23.250;2023-05-21T02:03:27;11.20;;;10.10;;
5297;SDS011;14738;42.668;23.250;2023-05-21T02:05:54;13.17;;;11.90;;
5297;SDS011;14738;42.668;23.250;2023-05-21T02:08:20;11.27;;;10.17;;
5297;SDS011;14738;42.668;23.250;2023-05-21T02:10:47;11.40;;;10.40;;
5297;SDS011;14738;42.668;23.250;2023-05-21T02:13:13;10.60;;;9.50;;
5297;SDS011;14738;42.668;23.250;2023-05-21T02:15:38;10.47;;;9.40;;
5297;SDS011;14738;42.668;23.250;2023-05-21T02:18:04;10.83;;;9.77;;
5297;SDS011;14738;42.668;23.250;2023-05-21T02:20:30;10.73;;;9.70;;
5297;SDS011;14738;42.668;23.250;2023-05-21T02:22:55;11.07;;;9.90;;
5297;SDS011;14738;42.668;23.250;2023-05-21T02:25:21;11.80;;;10.60;;
5297;SDS011;14738;42.668;23.250;2023-05-21T02:27:47;13.13;;;10.30;;
5297;SDS011;14738;42.668;23.250;2023-05-21T02:30:13;11.13;;;9.93;;
5297;SDS011;14738;42.668;23.250;2023-05-21T02:32:40;10.47;;;9.47;;
5297;SDS011;14738;42.668;23.250;2023-05-21T02:35:07;9.80;;;8.90;;
5297;SDS011;14738;42.668;23.250;2023-05-21T02:37:34;11.53;;;10.30;;
5297;SDS011;14738;42.668;23.250;2023-05-21T02:40:01;12.83;;;9.67;;
5297;SDS011;14738;42.668;23.250;2023-05-21T02:42:28;15.50;;;10.83;;
5297;SDS011;14738;42.668;23.250;2023-05-21T02:44:53;12.70;;;10.37;;
5297;SDS011;14738;42.668;23.250;2023-05-21T02:47:19;11.73;;;10.53;;
5297;SDS011;14738;42.668;23.250;2023-05-21T02:49:45;11.30;;;10.20;;
5297;SDS011;14738;42.668;23.250;2023-05-21T02:52:11;11.27;;;10.17;;
5297;SDS011;14738;42.668;23.250;2023-05-21T02:54:36;13.77;;;11.00;;
5297;SDS011;14738;42.668;23.250;2023-05-21T02:57:02;12.43;;;11.13;;
5297;SDS011;14738;42.668;23.250;2023-05-21T02:59:27;13.23;;;11.50;;
5297;SDS011;14738;42.668;23.250;2023-05-21T03:01:53;15.03;;;11.67;;
5297;SDS011;14738;42.668;23.250;2023-05-21T03:04:18;13.10;;;11.80;;
5297;SDS011;14738;42.668;23.250;2023-05-21T03:06:46;14.10;;;12.57;;
5297;SDS011;14738;42.668;23.250;2023-05-21T03:09:19;13.57;;;12.27;;
5297;SDS011;14738;42.668;23.250;2023-05-21T03:11:48;17.57;;;13.70;;
5297;SDS011;14738;42.668;23.250;2023-05-21T03:14:16;13.90;;;12.50;;
5297;SDS011;14738;42.668;23.250;2023-05-21T03:16:41;14.17;;;12.30;;
5297;SDS011;14738;42.668;23.250;2023-05-21T03:19:08;14.20;;;12.30;;
5297;SDS011;14738;42.668;23.250;2023-05-21T03:21:33;13.50;;;11.97;;
5297;SDS011;14738;42.668;23.250;2023-05-21T03:24:00;17.90;;;11.23;;
5297;SDS011;14738;42.668;23.250;2023-05-21T03:26:27;16.07;;;13.43;;
5297;SDS011;14738;42.668;23.250;2023-05-21T03:28:53;13.73;;;12.33;;
5297;SDS011;14738;42.668;23.250;2023-05-21T03:31:20;12.90;;;11.63;;
5297;SDS011;14738;42.668;23.250;2023-05-21T03:33:45;13.37;;;12.07;;
5297;SDS011;14738;42.668;23.250;2023-05-21T03:36:11;13.30;;;11.80;;
5297;SDS011;14738;42.668;23.250;2023-05-21T03:38:36;13.60;;;11.90;;
5297;SDS011;14738;42.668;23.250;2023-05-21T03:41:05;13.07;;;11.73;;
5297;SDS011;14738;42.668;23.250;2023-05-21T03:43:32;12.93;;;11.63;;
5297;SDS011;14738;42.668;23.250;2023-05-21T03:45:57;11.73;;;10.63;;
5297;SDS011;14738;42.668;23.250;2023-05-21T03:48:22;13.13;;;11.50;;
5297;SDS011;14738;42.668;23.250;2023-05-21T03:50:48;11.93;;;10.73;;
5297;SDS011;14738;42.668;23.250;2023-05-21T03:53:13;11.90;;;10.80;;
5297;SDS011;14738;42.668;23.250;2023-05-21T03:55:39;12.90;;;11.53;;
5297;SDS011;14738;42.668;23.250;2023-05-21T03:58:04;12.63;;;11.30;;
5297;SDS011;14738;42.668;23.250;2023-05-21T04:00:30;12.03;;;10.93;;
5297;SDS011;14738;42.668;23.250;2023-05-21T04:03:01;12.73;;;11.40;;
5297;SDS011;14738;42.668;23.250;2023-05-21T04:05:30;12.50;;;11.30;;
5297;SDS011;14738;42.668;23.250;2023-05-21T04:07:56;13.10;;;11.00;;
5297;SDS011;14738;42.668;23.250;2023-05-21T04:10:22;12.43;;;11.23;;
5297;SDS011;14738;42.668;23.250;2023-05-21T04:12:48;13.50;;;11.27;;
5297;SDS011;14738;42.668;23.250;2023-05-21T04:15:16;11.97;;;10.70;;
5297;SDS011;14738;42.668;23.250;2023-05-21T04:17:42;13.20;;;11.80;;
5297;SDS011;14738;42.668;23.250;2023-05-21T04:20:09;12.40;;;11.20;;
5297;SDS011;14738;42.668;23.250;2023-05-21T04:22:35;11.37;;;10.37;;
5297;SDS011;14738;42.668;23.250;2023-05-21T04:25:01;13.33;;;11.73;;
5297;SDS011;14738;42.668;23.250;2023-05-21T04:27:27;14.60;;;10.90;;
5297;SDS011;14738;42.668;23.250;2023-05-21T04:29:52;13.53;;;12.33;;
5297;SDS011;14738;42.668;23.250;2023-05-21T04:32:18;13.90;;;12.47;;
5297;SDS011;14738;42.668;23.250;2023-05-21T04:34:44;13.57;;;12.27;;
5297;SDS011;14738;42.668;23.250;2023-05-21T04:37:09;13.93;;;12.10;;
5297;SDS011;14738;42.668;23.250;2023-05-21T04:39:35;11.73;;;10.60;;
5297;SDS011;14738;42.668;23.250;2023-05-21T04:42:00;13.83;;;10.50;;
5297;SDS011;14738;42.668;23.250;2023-05-21T04:44:27;11.80;;;10.40;;
5297;SDS011;14738;42.668;23.250;2023-05-21T04:46:53;12.03;;;10.93;;
5297;SDS011;14738;42.668;23.250;2023-05-21T04:49:19;16.77;;;12.73;;
5297;SDS011;14738;42.668;23.250;2023-05-21T04:51:45;13.10;;;11.80;;
5297;SDS011;14738;42.668;23.250;2023-05-21T04:54:11;14.93;;;11.83;;
5297;SDS011;14738;42.668;23.250;2023-05-21T04:56:36;12.70;;;11.40;;
5297;SDS011;14738;42.668;23.250;2023-05-21T04:59:01;15.40;;;11.83;;
5297;SDS011;14738;42.668;23.250;2023-05-21T05:01:27;13.63;;;11.40;;
5297;SDS011;14738;42.668;23.250;2023-05-21T05:03:53;15.90;;;11.53;;
5297;SDS011;14738;42.668;23.250;2023-05-21T05:06:19;14.37;;;11.67;;
5297;SDS011;14738;42.668;23.250;2023-05-21T05:08:45;11.60;;;10.40;;
5297;SDS011;14738;42.668;23.250;2023-05-21T05:11:11;11.80;;;10.10;;
5297;SDS011;14738;42.668;23.250;2023-05-21T05:13:37;11.63;;;10.20;;
5297;SDS011;14738;42.668;23.250;2023-05-21T05:16:05;12.60;;;9.60;;
5297;SDS011;14738;42.668;23.250;2023-05-21T05:18:31;16.20;;;11.93;;
5297;SDS011;14738;42.668;23.250;2023-05-21T05:20:58;14.20;;;12.10;;
5297;SDS011;14738;42.668;23.250;2023-05-21T05:23:23;13.10;;;11.30;;
5297;SDS011;14738;42.668;23.250;2023-05-21T05:25:48;14.90;;;13.33;;
5297;SDS011;14738;42.668;23.250;2023-05-21T05:28:14;16.83;;;12.70;;
5297;SDS011;14738;42.668;23.250;2023-05-21T05:30:39;11.53;;;10.43;;
5297;SDS011;14738;42.668;23.250;2023-05-21T05:33:05;11.77;;;10.53;;
5297;SDS011;14738;42.668;23.250;2023-05-21T05:35:30;11.57;;;10.57;;
5297;SDS011;14738;42.668;23.250;2023-05-21T05:37:55;10.47;;;9.37;;
5297;SDS011;14738;42.668;23.250;2023-05-21T05:40:22;11.03;;;9.93;;
5297;SDS011;14738;42.668;23.250;2023-05-21T05:42:47;10.23;;;9.33;;
5297;SDS011;14738;42.668;23.250;2023-05-21T05:45:13;15.27;;;9.63;;
5297;SDS011;14738;42.668;23.250;2023-05-21T05:47:39;12.50;;;8.70;;
5297;SDS011;14738;42.668;23.250;2023-05-21T05:50:05;16.40;;;8.57;;
5297;SDS011;14738;42.668;23.250;2023-05-21T05:52:31;8.83;;;7.60;;
5297;SDS011;14738;42.668;23.250;2023-05-21T05:54:56;8.27;;;7.50;;
5297;SDS011;14738;42.668;23.250;2023-05-21T05:57:22;9.20;;;8.30;;
5297;SDS011;14738;42.668;23.250;2023-05-21T05:59:47;8.07;;;7.47;;
5297;SDS011;14738;42.668;23.250;2023-05-21T06:02:12;10.03;;;8.13;;
5297;SDS011;14738;42.668;23.250;2023-05-21T06:04:38;8.77;;;7.87;;
5297;SDS011;14738;42.668;23.250;2023-05-21T06:07:03;8.07;;;7.37;;
5297;SDS011;14738;42.668;23.250;2023-05-21T06:09:29;9.17;;;7.27;;
5297;SDS011;14738;42.668;23.250;2023-05-21T06:11:54;8.50;;;7.70;;
5297;SDS011;14738;42.668;23.250;2023-05-21T06:14:20;8.60;;;7.70;;
5297;SDS011;14738;42.668;23.250;2023-05-21T06:16:45;8.50;;;7.70;;
5297;SDS011;14738;42.668;23.250;2023-05-21T06:19:10;8.33;;;7.27;;
5297;SDS011;14738;42.668;23.250;2023-05-21T06:21:36;11.17;;;7.30;;
5297;SDS011;14738;42.668;23.250;2023-05-21T06:24:01;9.93;;;7.13;;
5297;SDS011;14738;42.668;23.250;2023-05-21T06:26:26;6.43;;;5.93;;
5297;SDS011;14738;42.668;23.250;2023-05-21T06:28:52;8.80;;;7.90;;
5297;SDS011;14738;42.668;23.250;2023-05-21T06:31:17;8.73;;;7.80;;
5297;SDS011;14738;42.668;23.250;2023-05-21T06:33:43;8.97;;;7.43;;
5297;SDS011;14738;42.668;23.250;2023-05-21T06:36:08;7.60;;;6.90;;
5297;SDS011;14738;42.668;23.250;2023-05-21T06:38:33;8.00;;;7.17;;
5297;SDS011;14738;42.668;23.250;2023-05-21T06:40:59;6.50;;;6.00;;
5297;SDS011;14738;42.668;23.250;2023-05-21T06:43:24;8.17;;;6.50;;
5297;SDS011;14738;42.668;23.250;2023-05-21T06:45:50;7.40;;;6.20;;
5297;SDS011;14738;42.668;23.250;2023-05-21T06:48:16;11.90;;;8.00;;
5297;SDS011;14738;42.668;23.250;2023-05-21T06:50:42;8.47;;;7.07;;
5297;SDS011;14738;42.668;23.250;2023-05-21T06:53:08;7.33;;;6.57;;
5297;SDS011;14738;42.668;23.250;2023-05-21T06:55:33;9.30;;;7.17;;
5297;SDS011;14738;42.668;23.250;2023-05-21T06:57:59;7.67;;;6.97;;
5297;SDS011;14738;42.668;23.250;2023-05-21T07:00:24;10.37;;;8.10;;
5297;SDS011;14738;42.668;23.250;2023-05-21T07:02:50;9.10;;;7.27;;
5297;SDS011;14738;42.668;23.250;2023-05-21T07:05:15;8.57;;;7.43;;
5297;SDS011;14738;42.668;23.250;2023-05-21T07:07:41;13.03;;;7.20;;
5297;SDS011;14738;42.668;23.250;2023-05-21T07:10:06;7.87;;;7.07;;
5297;SDS011;14738;42.668;23.250;2023-05-21T07:12:32;9.67;;;7.00;;
5297;SDS011;14738;42.668;23.250;2023-05-21T07:14:57;8.20;;;7.47;;
5297;SDS011;14738;42.668;23.250;2023-05-21T07:17:23;9.80;;;7.80;;
5297;SDS011;14738;42.668;23.250;2023-05-21T07:19:48;9.40;;;8.50;;
5297;SDS011;14738;42.668;23.250;2023-05-21T07:22:14;8.03;;;7.23;;
5297;SDS011;14738;42.668;23.250;2023-05-21T07:24:39;17.03;;;8.20;;
5297;SDS011;14738;42.668;23.250;2023-05-21T07:27:05;7.37;;;6.67;;
5297;SDS011;14738;42.668;23.250;2023-05-21T07:29:31;7.77;;;6.90;;
5297;SDS011;14738;42.668;23.250;2023-05-21T07:31:58;7.10;;;6.50;;
5297;SDS011;14738;42.668;23.250;2023-05-21T07:34:23;8.47;;;6.73;;
5297;SDS011;14738;42.668;23.250;2023-05-21T07:36:48;9.77;;;6.53;;
5297;SDS011;14738;42.668;23.250;2023-05-21T07:39:14;11.60;;;7.00;;
5297;SDS011;14738;42.668;23.250;2023-05-21T07:41:39;7.67;;;6.70;;
5297;SDS011;14738;42.668;23.250;2023-05-21T07:44:05;7.40;;;6.77;;
5297;SDS011;14738;42.668;23.250;2023-05-21T07:46:31;6.77;;;6.13;;
5297;SDS011;14738;42.668;23.250;2023-05-21T07:48:57;7.40;;;6.70;;
5297;SDS011;14738;42.668;23.250;2023-05-21T07:51:22;5.90;;;5.40;;
5297;SDS011;14738;42.668;23.250;2023-05-21T07:53:50;8.43;;;5.60;;
5297;SDS011;14738;42.668;23.250;2023-05-21T07:56:15;7.17;;;5.63;;
5297;SDS011;14738;42.668;23.250;2023-05-21T07:58:41;5.97;;;5.50;;
5297;SDS011;14738;42.668;23.250;2023-05-21T08:01:10;6.13;;;5.40;;
5297;SDS011;14738;42.668;23.250;2023-05-21T08:03:35;7.07;;;5.03;;
5297;SDS011;14738;42.668;23.250;2023-05-21T08:06:01;5.27;;;4.77;;
5297;SDS011;14738;42.668;23.250;2023-05-21T08:08:26;7.00;;;5.50;;
5297;SDS011;14738;42.668;23.250;2023-05-21T08:10:52;7.53;;;5.07;;
5297;SDS011;14738;42.668;23.250;2023-05-21T08:13:17;6.43;;;5.23;;
5297;SDS011;14738;42.668;23.250;2023-05-21T08:15:42;7.20;;;4.90;;
5297;SDS011;14738;42.668;23.250;2023-05-21T08:18:08;7.20;;;5.90;;
5297;SDS011;14738;42.668;23.250;2023-05-21T08:20:34;6.93;;;4.60;;
5297;SDS011;14738;42.668;23.250;2023-05-21T08:22:59;5.37;;;4.87;;
5297;SDS011;14738;42.668;23.250;2023-05-21T08:27:54;6.53;;;5.13;;
5297;SDS011;14738;42.668;23.250;2023-05-21T08:30:20;6.37;;;4.63;;
5297;SDS011;14738;42.668;23.250;2023-05-21T08:32:46;6.70;;;5.40;;
5297;SDS011;14738;42.668;23.250;2023-05-21T08:35:11;7.07;;;4.40;;
5297;SDS011;14738;42.668;23.250;2023-05-21T08:37:37;8.87;;;5.40;;
5297;SDS011;14738;42.668;23.250;2023-05-21T08:40:03;6.40;;;4.60;;
5297;SDS011;14738;42.668;23.250;2023-05-21T08:42:35;8.17;;;4.83;;
5297;SDS011;14738;42.668;23.250;2023-05-21T08:45:07;4.60;;;4.10;;
5297;SDS011;14738;42.668;23.250;2023-05-21T08:47:35;7.40;;;4.47;;
5297;SDS011;14738;42.668;23.250;2023-05-21T08:50:04;4.50;;;4.10;;
5297;SDS011;14738;42.668;23.250;2023-05-21T08:52:33;8.17;;;3.93;;
5297;SDS011;14738;42.668;23.250;2023-05-21T08:55:05;6.80;;;4.73;;
5297;SDS011;14738;42.668;23.250;2023-05-21T08:57:32;7.80;;;4.80;;
5297;SDS011;14738;42.668;23.250;2023-05-21T08:59:59;5.70;;;4.50;;
5297;SDS011;14738;42.668;23.250;2023-05-21T09:02:26;5.50;;;4.72;;
5297;SDS011;14738;42.668;23.250;2023-05-21T09:04:52;7.23;;;4.97;;
5297;SDS011;14738;42.668;23.250;2023-05-21T09:07:23;6.33;;;4.53;;
5297;SDS011;14738;42.668;23.250;2023-05-21T09:09:56;6.40;;;4.70;;
5297;SDS011;14738;42.668;23.250;2023-05-21T09:12:23;4.93;;;4.53;;
5297;SDS011;14738;42.668;23.250;2023-05-21T09:14:52;5.33;;;4.83;;
5297;SDS011;14738;42.668;23.250;2023-05-21T09:17:17;5.27;;;4.87;;
5297;SDS011;14738;42.668;23.250;2023-05-21T09:22:45;5.20;;;4.80;;
5297;SDS011;14738;42.668;23.250;2023-05-21T09:25:15;5.00;;;4.60;;
5297;SDS011;14738;42.668;23.250;2023-05-21T09:27:42;6.57;;;4.57;;
5297;SDS011;14738;42.668;23.250;2023-05-21T09:30:14;6.30;;;5.37;;
5297;SDS011;14738;42.668;23.250;2023-05-21T09:32:41;6.40;;;4.73;;
5297;SDS011;14738;42.668;23.250;2023-05-21T09:35:08;5.37;;;4.47;;
5297;SDS011;14738;42.668;23.250;2023-05-21T09:37:35;7.67;;;4.50;;
5297;SDS011;14738;42.668;23.250;2023-05-21T09:40:08;5.00;;;4.50;;
5297;SDS011;14738;42.668;23.250;2023-05-21T09:42:34;6.50;;;4.30;;
5297;SDS011;14738;42.668;23.250;2023-05-21T09:45:00;4.70;;;3.90;;
5297;SDS011;14738;42.668;23.250;2023-05-21T09:47:25;3.60;;;3.40;;
5297;SDS011;14738;42.668;23.250;2023-05-21T09:49:50;3.70;;;3.40;;
5297;SDS011;14738;42.668;23.250;2023-05-21T09:52:25;5.83;;;3.97;;
5297;SDS011;14738;42.668;23.250;2023-05-21T09:54:51;4.83;;;4.13;;
5297;SDS011;14738;42.668;23.250;2023-05-21T09:57:22;6.30;;;4.00;;
5297;SDS011;14738;42.668;23.250;2023-05-21T09:59:50;4.80;;;3.90;;
5297;SDS011;14738;42.668;23.250;2023-05-21T10:02:16;4.13;;;3.60;;
5297;SDS011;14738;42.668;23.250;2023-05-21T10:04:46;6.10;;;4.17;;
5297;SDS011;14738;42.668;23.250;2023-05-21T10:07:14;5.20;;;4.10;;
5297;SDS011;14738;42.668;23.250;2023-05-21T10:09:54;5.90;;;4.47;;
5297;SDS011;14738;42.668;23.250;2023-05-21T10:12:22;4.20;;;3.80;;
5297;SDS011;14738;42.668;23.250;2023-05-21T10:15:04;4.47;;;4.07;;
5297;SDS011;14738;42.668;23.250;2023-05-21T10:17:33;4.77;;;4.37;;
5297;SDS011;14738;42.668;23.250;2023-05-21T10:19:58;4.80;;;4.17;;
5297;SDS011;14738;42.668;23.250;2023-05-21T10:22:25;5.33;;;4.20;;
5297;SDS011;14738;42.668;23.250;2023-05-21T10:24:52;4.93;;;4.13;;
5297;SDS011;14738;42.668;23.250;2023-05-21T10:27:18;5.07;;;4.60;;
5297;SDS011;14738;42.668;23.250;2023-05-21T10:29:45;8.63;;;4.03;;
5297;SDS011;14738;42.668;23.250;2023-05-21T10:32:12;8.43;;;4.17;;
5297;SDS011;14738;42.668;23.250;2023-05-21T10:34:40;5.57;;;4.13;;
5297;SDS011;14738;42.668;23.250;2023-05-21T10:37:07;8.13;;;4.30;;
5297;SDS011;14738;42.668;23.250;2023-05-21T10:39:34;4.50;;;4.10;;
5297;SDS011;14738;42.668;23.250;2023-05-21T10:42:12;7.53;;;5.03;;
5297;SDS011;14738;42.668;23.250;2023-05-21T10:55:42;6.03;;;4.47;;
5297;SDS011;14738;42.668;23.250;2023-05-21T11:01:30;5.13;;;4.60;;
5297;SDS011;14738;42.668;23.250;2023-05-21T11:03:57;6.27;;;5.27;;
5297;SDS011;14738;42.668;23.250;2023-05-21T11:06:23;7.70;;;5.53;;
5297;SDS011;14738;42.668;23.250;2023-05-21T11:08:50;7.00;;;5.30;;
5297;SDS011;14738;42.668;23.250;2023-05-21T11:19:43;10.73;;;5.03;;
5297;SDS011;14738;42.668;23.250;2023-05-21T11:22:21;7.00;;;5.40;;
5297;SDS011;14738;42.668;23.250;2023-05-21T11:24:48;5.23;;;4.70;;
5297;SDS011;14738;42.668;23.250;2023-05-21T11:27:28;9.53;;;4.80;;
5297;SDS011;14738;42.668;23.250;2023-05-21T11:29:57;6.77;;;4.70;;
5297;SDS011;14738;42.668;23.250;2023-05-21T11:32:23;5.53;;;4.60;;
5297;SDS011;14738;42.668;23.250;2023-05-21T11:34:48;5.30;;;4.63;;
5297;SDS011;14738;42.668;23.250;2023-05-21T11:39:42;4.83;;;4.40;;
5297;SDS011;14738;42.668;23.250;2023-05-21T11:42:09;8.00;;;5.20;;
5297;SDS011;14738;42.668;23.250;2023-05-21T11:44:44;5.80;;;4.97;;
5297;SDS011;14738;42.668;23.250;2023-05-21T11:47:12;8.07;;;4.87;;
5297;SDS011;14738;42.668;23.250;2023-05-21T11:49:39;4.60;;;4.30;;
5297;SDS011;14738;42.668;23.250;2023-05-21T11:52:05;7.50;;;5.03;;
5297;SDS011;14738;42.668;23.250;2023-05-21T11:54:32;6.93;;;4.80;;
5297;SDS011;14738;42.668;23.250;2023-05-21T11:57:04;5.23;;;4.80;;
5297;SDS011;14738;42.668;23.250;2023-05-21T11:59:31;4.60;;;4.20;;
5297;SDS011;14738;42.668;23.250;2023-05-21T12:02:00;6.00;;;4.77;;
5297;SDS011;14738;42.668;23.250;2023-05-21T12:04:32;5.00;;;4.60;;
5297;SDS011;14738;42.668;23.250;2023-05-21T12:07:07;7.33;;;5.70;;
5297;SDS011;14738;42.668;23.250;2023-05-21T12:12:06;5.17;;;4.70;;
5297;SDS011;14738;42.668;23.250;2023-05-21T12:14:33;6.77;;;5.60;;
5297;SDS011;14738;42.668;23.250;2023-05-21T12:16:59;8.40;;;6.00;;
5297;SDS011;14738;42.668;23.250;2023-05-21T12:19:24;6.07;;;5.50;;
5297;SDS011;14738;42.668;23.250;2023-05-21T12:21:50;8.70;;;4.90;;
5297;SDS011;14738;42.668;23.250;2023-05-21T12:24:15;5.37;;;4.80;;
5297;SDS011;14738;42.668;23.250;2023-05-21T12:26:41;5.40;;;4.50;;
5297;SDS011;14738;42.668;23.250;2023-05-21T12:29:09;6.70;;;5.07;;
5297;SDS011;14738;42.668;23.250;2023-05-21T12:32:09;6.47;;;5.30;;
5297;SDS011;14738;42.668;23.250;2023-05-21T12:34:44;8.20;;;5.53;;
5297;SDS011;14738;42.668;23.250;2023-05-21T12:39:46;8.13;;;5.67;;
5297;SDS011;14738;42.668;23.250;2023-05-21T12:42:13;6.07;;;5.40;;
5297;SDS011;14738;42.668;23.250;2023-05-21T12:44:42;8.20;;;5.67;;
5297;SDS011;14738;42.668;23.250;2023-05-21T12:47:09;6.20;;;5.60;;
5297;SDS011;14738;42.668;23.250;2023-05-21T12:49:44;7.17;;;5.33;;
5297;SDS011;14738;42.668;23.250;2023-05-21T12:52:13;5.90;;;5.40;;
5297;SDS011;14738;42.668;23.250;2023-05-21T12:54:43;5.50;;;5.00;;
5297;SDS011;14738;42.668;23.250;2023-05-21T12:57:13;5.93;;;5.30;;
5297;SDS011;14738;42.668;23.250;2023-05-21T12:59:47;6.43;;;5.73;;
5297;SDS011;14738;42.668;23.250;2023-05-21T13:05:00;7.57;;;5.93;;
5297;SDS011;14738;42.668;23.250;2023-05-21T13:07:27;14.70;;;5.90;;
5297;SDS011;14738;42.668;23.250;2023-05-21T13:09:53;8.97;;;5.83;;
5297;SDS011;14738;42.668;23.250;2023-05-21T13:12:20;6.03;;;5.43;;
5297;SDS011;14738;42.668;23.250;2023-05-21T13:14:47;5.77;;;5.10;;
5297;SDS011;14738;42.668;23.250;2023-05-21T13:17:14;5.83;;;5.33;;
5297;SDS011;14738;42.668;23.250;2023-05-21T13:19:39;8.03;;;5.37;;
5297;SDS011;14738;42.668;23.250;2023-05-21T13:22:05;5.80;;;5.30;;
5297;SDS011;14738;42.668;23.250;2023-05-21T13:24:31;7.67;;;5.73;;
5297;SDS011;14738;42.668;23.250;2023-05-21T13:26:56;10.23;;;6.07;;
5297;SDS011;14738;42.668;23.250;2023-05-21T13:29:22;10.50;;;5.73;;
5297;SDS011;14738;42.668;23.250;2023-05-21T13:31:47;6.67;;;5.50;;
5297;SDS011;14738;42.668;23.250;2023-05-21T13:34:12;6.10;;;5.30;;
5297;SDS011;14738;42.668;23.250;2023-05-21T13:36:39;6.60;;;5.60;;
5297;SDS011;14738;42.668;23.250;2023-05-21T13:39:04;5.37;;;4.90;;
5297;SDS011;14738;42.668;23.250;2023-05-21T13:41:30;6.70;;;5.83;;
5297;SDS011;14738;42.668;23.250;2023-05-21T13:43:55;7.70;;;6.00;;
5297;SDS011;14738;42.668;23.250;2023-05-21T13:46:21;7.57;;;5.90;;
5297;SDS011;14738;42.668;23.250;2023-05-21T13:48:47;7.00;;;6.40;;
5297;SDS011;14738;42.668;23.250;2023-05-21T13:51:13;7.27;;;6.63;;
5297;SDS011;14738;42.668;23.250;2023-05-21T13:53:38;6.83;;;6.13;;
5297;SDS011;14738;42.668;23.250;2023-05-21T13:56:03;8.20;;;6.07;;
5297;SDS011;14738;42.668;23.250;2023-05-21T13:58:29;5.90;;;5.40;;
5297;SDS011;14738;42.668;23.250;2023-05-21T14:00:58;5.73;;;5.20;;
5297;SDS011;14738;42.668;23.250;2023-05-21T14:03:25;7.00;;;6.03;;
5297;SDS011;14738;42.668;23.250;2023-05-21T14:05:51;6.23;;;5.63;;
5297;SDS011;14738;42.668;23.250;2023-05-21T14:08:17;5.30;;;4.83;;
5297;SDS011;14738;42.668;23.250;2023-05-21T14:10:44;5.70;;;4.90;;
5297;SDS011;14738;42.668;23.250;2023-05-21T14:13:11;7.33;;;5.83;;
5297;SDS011;14738;42.668;23.250;2023-05-21T14:15:37;8.60;;;5.53;;
5297;SDS011;14738;42.668;23.250;2023-05-21T14:18:02;9.80;;;5.47;;
5297;SDS011;14738;42.668;23.250;2023-05-21T14:20:31;5.80;;;5.40;;
5297;SDS011;14738;42.668;23.250;2023-05-21T14:22:57;6.77;;;4.60;;
5297;SDS011;14738;42.668;23.250;2023-05-21T14:25:23;6.87;;;4.90;;
5297;SDS011;14738;42.668;23.250;2023-05-21T14:27:48;8.57;;;5.03;;
5297;SDS011;14738;42.668;23.250;2023-05-21T14:30:13;9.33;;;5.80;;
5297;SDS011;14738;42.668;23.250;2023-05-21T14:32:39;9.40;;;6.10;;
5297;SDS011;14738;42.668;23.250;2023-05-21T14:35:04;6.27;;;4.90;;
5297;SDS011;14738;42.668;23.250;2023-05-21T14:37:30;6.10;;;5.23;;
5297;SDS011;14738;42.668;23.250;2023-05-21T14:39:55;5.77;;;5.07;;
5297;SDS011;14738;42.668;23.250;2023-05-21T14:42:21;7.73;;;4.93;;
5297;SDS011;14738;42.668;23.250;2023-05-21T14:44:46;5.57;;;5.17;;
5297;SDS011;14738;42.668;23.250;2023-05-21T14:47:11;6.70;;;5.57;;
5297;SDS011;14738;42.668;23.250;2023-05-21T14:49:37;8.00;;;5.40;;
5297;SDS011;14738;42.668;23.250;2023-05-21T14:52:02;7.13;;;5.60;;
5297;SDS011;14738;42.668;23.250;2023-05-21T14:54:28;10.00;;;6.10;;
5297;SDS011;14738;42.668;23.250;2023-05-21T14:56:54;7.03;;;5.00;;
5297;SDS011;14738;42.668;23.250;2023-05-21T14:59:19;5.07;;;4.43;;
5297;SDS011;14738;42.668;23.250;2023-05-21T15:01:45;5.60;;;5.10;;
5297;SDS011;14738;42.668;23.250;2023-05-21T15:04:10;8.97;;;5.33;;
5297;SDS011;14738;42.668;23.250;2023-05-21T15:06:35;7.07;;;5.07;;
5297;SDS011;14738;42.668;23.250;2023-05-21T15:09:01;5.83;;;5.30;;
5297;SDS011;14738;42.668;23.250;2023-05-21T15:11:26;7.80;;;5.57;;
5297;SDS011;14738;42.668;23.250;2023-05-21T15:13:52;5.10;;;4.70;;